Morgan, Minnesota
Current Conditions -  °F | °C
As of 6:53 PM on Thursday 27 Nov 2014 (Local Time) from KRWF Reporting Station
Overcast Overcast  
Wind Chill: -15°   Ceiling: 4600
Heat Index:   Visibility: 10mi
Dew Point: -4°   Wind: 14mph
Humidity: 73%   Direction: 150°SSE
Pressure: 30.3"   Gusts: NA
Location:  44.42°N, 94.93°W
Report Text: KRWF 280053Z AUTO 15012KT 10SM BKN046 OVC080 M16/M20 A3030 RMK AO2 SLP292 T11611200
Loading
Personal Weather Stations






























Interactive Weather Map New forecast layout! Learn more

10-Day Weather Forecast

Advertisements
Track Severe Weather on mobile